Terminal Aerodrome Forecast
Issued by NWS Grand Forks, ND

Home | Current Version | Previous Version | Text Only | Print | Product List | Glossary Off
Versions: 1 2 3 4 5 6 7 8 9 10 11 12 13 14 15 16 17 18 19 20 21 22 23

000
FTUS43 KFGF 302300
TAFGFK
TAF
KGFK 302328Z 3100/3124 12007KT P6SM FEW030
     FM310900 12010KT P6SM BKN050
     FM311200 14014G21KT P6SM -TSRA OVC040CB
     FM311800 19014KT P6SM BKN050
     FM312200 29013G21KT P6SM BKN070=

USA.gov is the U.S. government's official web portal to all federal, state and local government web resources and services.